sensor_id;sensor_type;location;lat;lon;timestamp;temperature;humidity
7972;DHT22;4031;49.758;6.120;2023-02-04T00:00:51;7.40;99.90
7972;DHT22;4031;49.758;6.120;2023-02-04T00:03:17;7.20;99.90
7972;DHT22;4031;49.758;6.120;2023-02-04T00:05:42;7.20;99.90
7972;DHT22;4031;49.758;6.120;2023-02-04T00:08:08;7.10;99.90
7972;DHT22;4031;49.758;6.120;2023-02-04T00:10:35;7.10;99.90
7972;DHT22;4031;49.758;6.120;2023-02-04T00:13:02;7.00;99.90
7972;DHT22;4031;49.758;6.120;2023-02-04T00:15:29;6.90;99.90
7972;DHT22;4031;49.758;6.120;2023-02-04T00:17:55;6.90;99.90
7972;DHT22;4031;49.758;6.120;2023-02-04T00:20:21;6.80;99.90
7972;DHT22;4031;49.758;6.120;2023-02-04T00:22:47;6.80;99.90
7972;DHT22;4031;49.758;6.120;2023-02-04T00:25:13;6.90;99.90
7972;DHT22;4031;49.758;6.120;2023-02-04T00:27:39;6.80;99.90
7972;DHT22;4031;49.758;6.120;2023-02-04T00:30:06;6.80;99.90
7972;DHT22;4031;49.758;6.120;2023-02-04T00:32:34;6.80;99.90
7972;DHT22;4031;49.758;6.120;2023-02-04T00:34:59;6.80;99.90
7972;DHT22;4031;49.758;6.120;2023-02-04T00:37:29;6.70;99.90
7972;DHT22;4031;49.758;6.120;2023-02-04T00:39:55;6.70;99.90
7972;DHT22;4031;49.758;6.120;2023-02-04T00:42:21;6.70;99.90
7972;DHT22;4031;49.758;6.120;2023-02-04T00:44:47;6.60;99.90
7972;DHT22;4031;49.758;6.120;2023-02-04T00:47:12;6.50;99.90
7972;DHT22;4031;49.758;6.120;2023-02-04T00:49:38;6.40;99.90
7972;DHT22;4031;49.758;6.120;2023-02-04T00:52:04;6.30;99.90
7972;DHT22;4031;49.758;6.120;2023-02-04T00:54:30;6.20;99.90
7972;DHT22;4031;49.758;6.120;2023-02-04T00:56:55;6.10;99.90
7972;DHT22;4031;49.758;6.120;2023-02-04T00:59:21;5.90;99.90
7972;DHT22;4031;49.758;6.120;2023-02-04T01:01:47;5.90;99.90
7972;DHT22;4031;49.758;6.120;2023-02-04T01:04:13;5.80;99.90
7972;DHT22;4031;49.758;6.120;2023-02-04T01:06:39;5.70;99.90
7972;DHT22;4031;49.758;6.120;2023-02-04T01:09:05;5.70;99.90
7972;DHT22;4031;49.758;6.120;2023-02-04T01:11:32;5.60;99.90
7972;DHT22;4031;49.758;6.120;2023-02-04T01:13:57;5.60;99.90
7972;DHT22;4031;49.758;6.120;2023-02-04T01:16:23;5.60;99.90
7972;DHT22;4031;49.758;6.120;2023-02-04T01:18:49;5.50;99.90
7972;DHT22;4031;49.758;6.120;2023-02-04T01:21:15;5.60;99.90
7972;DHT22;4031;49.758;6.120;2023-02-04T01:23:41;5.50;99.90
7972;DHT22;4031;49.758;6.120;2023-02-04T01:26:07;5.50;99.90
7972;DHT22;4031;49.758;6.120;2023-02-04T01:28:32;5.50;99.90
7972;DHT22;4031;49.758;6.120;2023-02-04T01:30:58;5.60;99.90
7972;DHT22;4031;49.758;6.120;2023-02-04T01:33:24;5.60;99.90
7972;DHT22;4031;49.758;6.120;2023-02-04T01:35:50;5.60;99.90
7972;DHT22;4031;49.758;6.120;2023-02-04T01:38:15;5.50;99.90
7972;DHT22;4031;49.758;6.120;2023-02-04T01:40:41;5.50;99.90
7972;DHT22;4031;49.758;6.120;2023-02-04T01:43:07;5.50;99.90
7972;DHT22;4031;49.758;6.120;2023-02-04T01:45:34;5.60;99.90
7972;DHT22;4031;49.758;6.120;2023-02-04T01:48:02;5.70;99.90
7972;DHT22;4031;49.758;6.120;2023-02-04T01:50:29;5.70;99.90
7972;DHT22;4031;49.758;6.120;2023-02-04T01:52:54;5.80;99.90
7972;DHT22;4031;49.758;6.120;2023-02-04T01:55:24;5.70;99.90
7972;DHT22;4031;49.758;6.120;2023-02-04T01:57:52;5.60;99.90
7972;DHT22;4031;49.758;6.120;2023-02-04T02:00:23;5.60;99.90
7972;DHT22;4031;49.758;6.120;2023-02-04T02:02:51;5.60;99.90
7972;DHT22;4031;49.758;6.120;2023-02-04T02:05:23;5.60;99.90
7972;DHT22;4031;49.758;6.120;2023-02-04T02:07:53;5.60;99.90
7972;DHT22;4031;49.758;6.120;2023-02-04T02:10:20;5.60;99.90
7972;DHT22;4031;49.758;6.120;2023-02-04T02:12:47;5.60;99.90
7972;DHT22;4031;49.758;6.120;2023-02-04T02:15:14;5.70;99.90
7972;DHT22;4031;49.758;6.120;2023-02-04T02:17:41;5.80;99.90
7972;DHT22;4031;49.758;6.120;2023-02-04T02:20:13;5.90;99.90
7972;DHT22;4031;49.758;6.120;2023-02-04T02:25:30;6.10;99.90
7972;DHT22;4031;49.758;6.120;2023-02-04T02:27:57;6.10;99.90
7972;DHT22;4031;49.758;6.120;2023-02-04T02:30:23;6.20;99.90
7972;DHT22;4031;49.758;6.120;2023-02-04T02:32:50;6.20;99.90
7972;DHT22;4031;49.758;6.120;2023-02-04T02:35:17;6.30;99.90
7972;DHT22;4031;49.758;6.120;2023-02-04T02:37:43;6.40;99.90
7972;DHT22;4031;49.758;6.120;2023-02-04T02:40:09;6.40;99.90
7972;DHT22;4031;49.758;6.120;2023-02-04T02:42:36;6.40;99.90
7972;DHT22;4031;49.758;6.120;2023-02-04T02:45:10;6.40;99.90
7972;DHT22;4031;49.758;6.120;2023-02-04T02:47:39;6.50;99.90
7972;DHT22;4031;49.758;6.120;2023-02-04T02:50:05;6.60;99.90
7972;DHT22;4031;49.758;6.120;2023-02-04T02:52:31;6.60;99.90
7972;DHT22;4031;49.758;6.120;2023-02-04T02:54:57;6.60;99.90
7972;DHT22;4031;49.758;6.120;2023-02-04T02:57:23;6.70;99.90
7972;DHT22;4031;49.758;6.120;2023-02-04T02:59:49;6.70;99.90
7972;DHT22;4031;49.758;6.120;2023-02-04T03:02:19;6.70;99.90
7972;DHT22;4031;49.758;6.120;2023-02-04T03:04:52;6.70;99.90
7972;DHT22;4031;49.758;6.120;2023-02-04T03:07:20;6.70;99.90
7972;DHT22;4031;49.758;6.120;2023-02-04T03:09:46;6.80;99.90
7972;DHT22;4031;49.758;6.120;2023-02-04T03:12:12;6.80;99.90
7972;DHT22;4031;49.758;6.120;2023-02-04T03:14:38;6.80;99.90
7972;DHT22;4031;49.758;6.120;2023-02-04T03:17:06;6.90;99.90
7972;DHT22;4031;49.758;6.120;2023-02-04T03:19:34;6.90;99.90
7972;DHT22;4031;49.758;6.120;2023-02-04T03:22:01;6.90;99.90
7972;DHT22;4031;49.758;6.120;2023-02-04T03:24:28;6.90;99.90
7972;DHT22;4031;49.758;6.120;2023-02-04T03:26:54;6.90;99.90
7972;DHT22;4031;49.758;6.120;2023-02-04T03:29:20;6.90;99.90
7972;DHT22;4031;49.758;6.120;2023-02-04T03:31:45;6.90;99.90
7972;DHT22;4031;49.758;6.120;2023-02-04T03:34:11;6.90;99.90
7972;DHT22;4031;49.758;6.120;2023-02-04T03:36:37;6.90;99.90
7972;DHT22;4031;49.758;6.120;2023-02-04T03:39:03;6.90;99.90
7972;DHT22;4031;49.758;6.120;2023-02-04T03:41:29;7.00;99.90
7972;DHT22;4031;49.758;6.120;2023-02-04T03:43:54;7.00;99.90
7972;DHT22;4031;49.758;6.120;2023-02-04T03:46:20;7.10;99.90
7972;DHT22;4031;49.758;6.120;2023-02-04T03:48:48;7.10;99.90
7972;DHT22;4031;49.758;6.120;2023-02-04T03:51:14;7.10;99.90
7972;DHT22;4031;49.758;6.120;2023-02-04T03:53:39;7.10;99.90
7972;DHT22;4031;49.758;6.120;2023-02-04T03:56:05;7.20;99.90
7972;DHT22;4031;49.758;6.120;2023-02-04T03:58:31;7.20;99.90
7972;DHT22;4031;49.758;6.120;2023-02-04T04:00:57;7.20;99.90
7972;DHT22;4031;49.758;6.120;2023-02-04T04:03:23;7.10;99.90
7972;DHT22;4031;49.758;6.120;2023-02-04T04:05:48;7.10;99.90
7972;DHT22;4031;49.758;6.120;2023-02-04T04:08:14;7.10;99.90
7972;DHT22;4031;49.758;6.120;2023-02-04T04:10:40;7.20;99.90
7972;DHT22;4031;49.758;6.120;2023-02-04T04:13:06;7.20;99.90
7972;DHT22;4031;49.758;6.120;2023-02-04T04:15:31;7.20;99.90
7972;DHT22;4031;49.758;6.120;2023-02-04T04:17:57;7.30;99.90
7972;DHT22;4031;49.758;6.120;2023-02-04T04:20:23;7.20;99.90
7972;DHT22;4031;49.758;6.120;2023-02-04T04:22:50;7.10;99.90
7972;DHT22;4031;49.758;6.120;2023-02-04T04:25:16;7.20;99.90
7972;DHT22;4031;49.758;6.120;2023-02-04T04:27:42;7.20;99.90
7972;DHT22;4031;49.758;6.120;2023-02-04T04:30:08;7.20;99.90
7972;DHT22;4031;49.758;6.120;2023-02-04T04:32:35;7.30;99.90
7972;DHT22;4031;49.758;6.120;2023-02-04T04:35:01;7.40;99.90
7972;DHT22;4031;49.758;6.120;2023-02-04T04:37:27;7.30;99.90
7972;DHT22;4031;49.758;6.120;2023-02-04T04:39:53;7.40;99.90
7972;DHT22;4031;49.758;6.120;2023-02-04T04:42:19;7.30;99.90
7972;DHT22;4031;49.758;6.120;2023-02-04T04:44:45;7.30;99.90
7972;DHT22;4031;49.758;6.120;2023-02-04T04:47:11;7.30;99.90
7972;DHT22;4031;49.758;6.120;2023-02-04T04:49:36;7.30;99.90
7972;DHT22;4031;49.758;6.120;2023-02-04T04:52:02;7.30;99.90
7972;DHT22;4031;49.758;6.120;2023-02-04T04:54:28;7.30;99.90
7972;DHT22;4031;49.758;6.120;2023-02-04T04:56:54;7.30;99.90
7972;DHT22;4031;49.758;6.120;2023-02-04T04:59:19;7.30;99.90
7972;DHT22;4031;49.758;6.120;2023-02-04T05:01:45;7.40;99.90
7972;DHT22;4031;49.758;6.120;2023-02-04T05:04:11;7.30;99.90
7972;DHT22;4031;49.758;6.120;2023-02-04T05:06:36;7.30;99.90
7972;DHT22;4031;49.758;6.120;2023-02-04T05:09:03;7.30;99.90
7972;DHT22;4031;49.758;6.120;2023-02-04T05:11:29;7.20;99.90
7972;DHT22;4031;49.758;6.120;2023-02-04T05:13:55;7.20;99.90
7972;DHT22;4031;49.758;6.120;2023-02-04T05:16:20;7.30;99.90
7972;DHT22;4031;49.758;6.120;2023-02-04T05:18:46;7.30;99.90
7972;DHT22;4031;49.758;6.120;2023-02-04T05:21:12;7.40;99.90
7972;DHT22;4031;49.758;6.120;2023-02-04T05:23:38;7.40;99.90
7972;DHT22;4031;49.758;6.120;2023-02-04T05:26:03;7.50;99.90
7972;DHT22;4031;49.758;6.120;2023-02-04T05:28:29;7.50;99.90
7972;DHT22;4031;49.758;6.120;2023-02-04T05:30:55;7.40;99.90
7972;DHT22;4031;49.758;6.120;2023-02-04T05:33:21;7.40;99.90
7972;DHT22;4031;49.758;6.120;2023-02-04T05:35:46;7.40;99.90
7972;DHT22;4031;49.758;6.120;2023-02-04T05:38:12;7.40;99.90
7972;DHT22;4031;49.758;6.120;2023-02-04T05:40:38;7.30;99.90
7972;DHT22;4031;49.758;6.120;2023-02-04T05:43:04;7.30;99.90
7972;DHT22;4031;49.758;6.120;2023-02-04T05:45:29;7.30;99.90
7972;DHT22;4031;49.758;6.120;2023-02-04T05:47:55;7.20;99.90
7972;DHT22;4031;49.758;6.120;2023-02-04T05:50:21;7.00;99.90
7972;DHT22;4031;49.758;6.120;2023-02-04T05:52:47;7.00;99.90
7972;DHT22;4031;49.758;6.120;2023-02-04T05:55:12;6.90;99.90
7972;DHT22;4031;49.758;6.120;2023-02-04T05:57:38;6.90;99.90
7972;DHT22;4031;49.758;6.120;2023-02-04T06:00:05;6.80;99.90
7972;DHT22;4031;49.758;6.120;2023-02-04T06:02:31;6.70;99.90
7972;DHT22;4031;49.758;6.120;2023-02-04T06:04:57;6.70;99.90
7972;DHT22;4031;49.758;6.120;2023-02-04T06:07:22;6.60;99.90
7972;DHT22;4031;49.758;6.120;2023-02-04T06:09:48;6.50;99.90
7972;DHT22;4031;49.758;6.120;2023-02-04T06:12:14;6.40;99.90
7972;DHT22;4031;49.758;6.120;2023-02-04T06:14:39;6.30;99.90
7972;DHT22;4031;49.758;6.120;2023-02-04T06:17:05;6.30;99.90
7972;DHT22;4031;49.758;6.120;2023-02-04T06:19:31;6.10;99.90
7972;DHT22;4031;49.758;6.120;2023-02-04T06:21:56;6.00;99.90
7972;DHT22;4031;49.758;6.120;2023-02-04T06:24:22;5.90;99.90
7972;DHT22;4031;49.758;6.120;2023-02-04T06:26:48;6.00;99.90
7972;DHT22;4031;49.758;6.120;2023-02-04T06:29:13;5.90;99.90
7972;DHT22;4031;49.758;6.120;2023-02-04T06:31:39;5.90;99.90
7972;DHT22;4031;49.758;6.120;2023-02-04T06:34:05;5.90;99.90
7972;DHT22;4031;49.758;6.120;2023-02-04T06:36:31;5.90;99.90
7972;DHT22;4031;49.758;6.120;2023-02-04T06:38:57;5.90;99.90
7972;DHT22;4031;49.758;6.120;2023-02-04T06:41:23;5.90;99.90
7972;DHT22;4031;49.758;6.120;2023-02-04T06:43:49;5.80;99.90
7972;DHT22;4031;49.758;6.120;2023-02-04T06:46:14;5.80;99.90
7972;DHT22;4031;49.758;6.120;2023-02-04T06:48:40;5.80;99.90
7972;DHT22;4031;49.758;6.120;2023-02-04T06:51:06;5.80;99.90
7972;DHT22;4031;49.758;6.120;2023-02-04T06:53:32;5.80;99.90
7972;DHT22;4031;49.758;6.120;2023-02-04T06:55:58;5.80;99.90
7972;DHT22;4031;49.758;6.120;2023-02-04T06:58:23;5.70;99.90
7972;DHT22;4031;49.758;6.120;2023-02-04T07:00:49;5.60;99.90
7972;DHT22;4031;49.758;6.120;2023-02-04T07:03:15;5.50;99.90
7972;DHT22;4031;49.758;6.120;2023-02-04T07:05:40;5.40;99.90
7972;DHT22;4031;49.758;6.120;2023-02-04T07:08:06;5.30;99.90
7972;DHT22;4031;49.758;6.120;2023-02-04T07:10:32;5.20;99.90
7972;DHT22;4031;49.758;6.120;2023-02-04T07:12:57;5.00;99.90
7972;DHT22;4031;49.758;6.120;2023-02-04T07:15:23;4.90;99.90
7972;DHT22;4031;49.758;6.120;2023-02-04T07:17:49;4.80;99.90
7972;DHT22;4031;49.758;6.120;2023-02-04T07:20:15;4.70;99.90
7972;DHT22;4031;49.758;6.120;2023-02-04T07:22:41;4.60;99.90
7972;DHT22;4031;49.758;6.120;2023-02-04T07:25:08;4.50;99.90
7972;DHT22;4031;49.758;6.120;2023-02-04T07:27:34;4.50;99.90
7972;DHT22;4031;49.758;6.120;2023-02-04T07:30:00;4.30;99.90
7972;DHT22;4031;49.758;6.120;2023-02-04T07:32:26;4.20;99.90
7972;DHT22;4031;49.758;6.120;2023-02-04T07:34:58;4.20;99.90
7972;DHT22;4031;49.758;6.120;2023-02-04T07:37:25;4.10;99.90
7972;DHT22;4031;49.758;6.120;2023-02-04T07:39:50;4.10;99.90
7972;DHT22;4031;49.758;6.120;2023-02-04T07:42:16;4.20;99.90
7972;DHT22;4031;49.758;6.120;2023-02-04T07:44:42;4.20;99.90
7972;DHT22;4031;49.758;6.120;2023-02-04T07:47:08;4.30;99.90
7972;DHT22;4031;49.758;6.120;2023-02-04T07:49:33;4.40;99.90
7972;DHT22;4031;49.758;6.120;2023-02-04T07:51:59;4.50;99.90
7972;DHT22;4031;49.758;6.120;2023-02-04T07:54:25;4.60;99.90
7972;DHT22;4031;49.758;6.120;2023-02-04T07:56:50;4.70;99.90
7972;DHT22;4031;49.758;6.120;2023-02-04T07:59:16;4.80;99.90
7972;DHT22;4031;49.758;6.120;2023-02-04T08:01:42;4.80;99.90
7972;DHT22;4031;49.758;6.120;2023-02-04T08:04:07;4.90;99.90
7972;DHT22;4031;49.758;6.120;2023-02-04T08:06:33;5.10;99.90
7972;DHT22;4031;49.758;6.120;2023-02-04T08:08:59;5.10;99.90
7972;DHT22;4031;49.758;6.120;2023-02-04T08:11:24;5.10;99.90
7972;DHT22;4031;49.758;6.120;2023-02-04T08:13:51;5.10;99.90
7972;DHT22;4031;49.758;6.120;2023-02-04T08:16:17;5.00;99.90
7972;DHT22;4031;49.758;6.120;2023-02-04T08:18:42;4.90;99.90
7972;DHT22;4031;49.758;6.120;2023-02-04T08:21:08;4.90;99.90
7972;DHT22;4031;49.758;6.120;2023-02-04T08:23:34;4.80;99.90
7972;DHT22;4031;49.758;6.120;2023-02-04T08:26:00;4.70;99.90
7972;DHT22;4031;49.758;6.120;2023-02-04T08:28:25;4.60;99.90
7972;DHT22;4031;49.758;6.120;2023-02-04T08:30:51;4.60;99.90
7972;DHT22;4031;49.758;6.120;2023-02-04T08:33:18;4.50;99.90
7972;DHT22;4031;49.758;6.120;2023-02-04T08:35:44;4.50;99.90
7972;DHT22;4031;49.758;6.120;2023-02-04T08:38:09;4.40;99.90
7972;DHT22;4031;49.758;6.120;2023-02-04T08:40:35;4.40;99.90
7972;DHT22;4031;49.758;6.120;2023-02-04T08:43:01;4.40;99.90
7972;DHT22;4031;49.758;6.120;2023-02-04T08:45:26;4.40;99.90
7972;DHT22;4031;49.758;6.120;2023-02-04T08:47:52;4.40;99.90
7972;DHT22;4031;49.758;6.120;2023-02-04T08:50:18;4.50;99.90
7972;DHT22;4031;49.758;6.120;2023-02-04T08:52:43;4.40;99.90
7972;DHT22;4031;49.758;6.120;2023-02-04T08:55:09;4.50;99.90
7972;DHT22;4031;49.758;6.120;2023-02-04T08:57:35;4.70;99.90
7972;DHT22;4031;49.758;6.120;2023-02-04T09:00:01;5.30;99.90
7972;DHT22;4031;49.758;6.120;2023-02-04T09:02:27;6.20;99.90
7972;DHT22;4031;49.758;6.120;2023-02-04T09:04:53;7.70;99.90
7972;DHT22;4031;49.758;6.120;2023-02-04T09:07:19;9.20;99.90
7972;DHT22;4031;49.758;6.120;2023-02-04T09:09:45;10.80;99.90
7972;DHT22;4031;49.758;6.120;2023-02-04T09:12:10;11.40;99.90
7972;DHT22;4031;49.758;6.120;2023-02-04T09:14:36;11.70;99.90
7972;DHT22;4031;49.758;6.120;2023-02-04T09:17:02;11.90;99.90
7972;DHT22;4031;49.758;6.120;2023-02-04T09:19:30;12.20;99.90
7972;DHT22;4031;49.758;6.120;2023-02-04T09:21:55;12.50;99.90
7972;DHT22;4031;49.758;6.120;2023-02-04T09:24:21;12.40;99.90
7972;DHT22;4031;49.758;6.120;2023-02-04T09:26:49;12.00;99.90
7972;DHT22;4031;49.758;6.120;2023-02-04T09:29:15;11.60;99.90
7972;DHT22;4031;49.758;6.120;2023-02-04T09:31:41;11.40;99.90
7972;DHT22;4031;49.758;6.120;2023-02-04T09:34:07;11.40;99.90
7972;DHT22;4031;49.758;6.120;2023-02-04T09:36:32;12.00;99.90
7972;DHT22;4031;49.758;6.120;2023-02-04T09:39:03;12.60;99.90
7972;DHT22;4031;49.758;6.120;2023-02-04T09:41:31;12.90;99.90
7972;DHT22;4031;49.758;6.120;2023-02-04T09:43:58;13.10;99.90
7972;DHT22;4031;49.758;6.120;2023-02-04T09:46:25;12.60;99.90
7972;DHT22;4031;49.758;6.120;2023-02-04T09:48:53;12.10;99.90
7972;DHT22;4031;49.758;6.120;2023-02-04T09:51:27;11.90;99.90
7972;DHT22;4031;49.758;6.120;2023-02-04T09:54:00;11.40;99.90
7972;DHT22;4031;49.758;6.120;2023-02-04T09:56:30;11.20;99.90
7972;DHT22;4031;49.758;6.120;2023-02-04T09:58:56;11.30;99.90
7972;DHT22;4031;49.758;6.120;2023-02-04T10:01:21;11.50;99.90
7972;DHT22;4031;49.758;6.120;2023-02-04T10:03:48;11.30;99.90
7972;DHT22;4031;49.758;6.120;2023-02-04T10:06:20;11.10;99.90
7972;DHT22;4031;49.758;6.120;2023-02-04T10:08:47;10.90;99.90
7972;DHT22;4031;49.758;6.120;2023-02-04T10:11:15;10.80;99.90
7972;DHT22;4031;49.758;6.120;2023-02-04T10:13:49;10.60;99.90
7972;DHT22;4031;49.758;6.120;2023-02-04T10:16:24;10.40;99.90
7972;DHT22;4031;49.758;6.120;2023-02-04T10:18:58;10.20;99.90
7972;DHT22;4031;49.758;6.120;2023-02-04T10:21:28;10.00;99.90
7972;DHT22;4031;49.758;6.120;2023-02-04T10:23:58;9.90;99.90
7972;DHT22;4031;49.758;6.120;2023-02-04T10:26:28;9.70;99.90
7972;DHT22;4031;49.758;6.120;2023-02-04T10:29:06;9.60;99.90
7972;DHT22;4031;49.758;6.120;2023-02-04T10:31:35;9.40;99.90
7972;DHT22;4031;49.758;6.120;2023-02-04T10:34:17;9.50;99.90
7972;DHT22;4031;49.758;6.120;2023-02-04T10:36:47;9.60;99.90
7972;DHT22;4031;49.758;6.120;2023-02-04T10:39:28;9.80;99.90
7972;DHT22;4031;49.758;6.120;2023-02-04T10:41:59;9.80;99.90
7972;DHT22;4031;49.758;6.120;2023-02-04T10:44:27;9.90;99.90
7972;DHT22;4031;49.758;6.120;2023-02-04T10:47:18;10.10;99.90
7972;DHT22;4031;49.758;6.120;2023-02-04T10:50:06;10.30;99.90
7972;DHT22;4031;49.758;6.120;2023-02-04T10:52:42;10.50;99.90
7972;DHT22;4031;49.758;6.120;2023-02-04T10:55:17;10.50;99.90
7972;DHT22;4031;49.758;6.120;2023-02-04T10:57:46;10.50;99.90
7972;DHT22;4031;49.758;6.120;2023-02-04T11:00:24;10.60;99.90
7972;DHT22;4031;49.758;6.120;2023-02-04T11:02:57;10.60;99.90
7972;DHT22;4031;49.758;6.120;2023-02-04T11:05:29;10.60;99.90
7972;DHT22;4031;49.758;6.120;2023-02-04T11:07:56;10.60;99.90
7972;DHT22;4031;49.758;6.120;2023-02-04T11:10:26;10.70;99.90
7972;DHT22;4031;49.758;6.120;2023-02-04T11:15:45;10.30;99.90
7972;DHT22;4031;49.758;6.120;2023-02-04T11:18:26;10.10;99.90
7972;DHT22;4031;49.758;6.120;2023-02-04T11:20:56;10.20;99.90
7972;DHT22;4031;49.758;6.120;2023-02-04T11:26:05;10.10;99.90
7972;DHT22;4031;49.758;6.120;2023-02-04T11:28:46;10.20;99.90
7972;DHT22;4031;49.758;6.120;2023-02-04T11:33:46;10.10;99.90
7972;DHT22;4031;49.758;6.120;2023-02-04T11:36:15;10.10;99.90
7972;DHT22;4031;49.758;6.120;2023-02-04T11:38:46;10.20;99.90
7972;DHT22;4031;49.758;6.120;2023-02-04T11:41:26;10.20;99.90
7972;DHT22;4031;49.758;6.120;2023-02-04T11:43:57;10.30;99.90
7972;DHT22;4031;49.758;6.120;2023-02-04T11:46:25;10.40;99.90
7972;DHT22;4031;49.758;6.120;2023-02-04T11:48:54;10.50;99.90
7972;DHT22;4031;49.758;6.120;2023-02-04T11:51:32;10.50;99.90
7972;DHT22;4031;49.758;6.120;2023-02-04T11:53:58;10.80;99.90
7972;DHT22;4031;49.758;6.120;2023-02-04T11:56:28;10.80;99.90
7972;DHT22;4031;49.758;6.120;2023-02-04T11:58:56;10.80;99.90
7972;DHT22;4031;49.758;6.120;2023-02-04T12:01:31;10.80;99.90
7972;DHT22;4031;49.758;6.120;2023-02-04T12:04:00;10.90;99.90
7972;DHT22;4031;49.758;6.120;2023-02-04T12:06:32;11.10;99.90
7972;DHT22;4031;49.758;6.120;2023-02-04T12:11:57;11.10;99.90
7972;DHT22;4031;49.758;6.120;2023-02-04T12:14:31;11.00;99.90
7972;DHT22;4031;49.758;6.120;2023-02-04T12:16:58;11.00;99.90
7972;DHT22;4031;49.758;6.120;2023-02-04T12:19:24;11.20;99.90
7972;DHT22;4031;49.758;6.120;2023-02-04T12:21:50;11.30;99.90
7972;DHT22;4031;49.758;6.120;2023-02-04T12:24:16;11.40;99.90
7972;DHT22;4031;49.758;6.120;2023-02-04T12:26:41;11.40;99.90
7972;DHT22;4031;49.758;6.120;2023-02-04T12:29:07;11.40;99.90
7972;DHT22;4031;49.758;6.120;2023-02-04T12:31:34;11.30;99.90
7972;DHT22;4031;49.758;6.120;2023-02-04T12:34:00;11.40;99.90
7972;DHT22;4031;49.758;6.120;2023-02-04T12:36:26;11.60;99.90
7972;DHT22;4031;49.758;6.120;2023-02-04T12:38:54;11.70;99.90
7972;DHT22;4031;49.758;6.120;2023-02-04T12:41:27;11.60;99.90
7972;DHT22;4031;49.758;6.120;2023-02-04T12:43:53;11.70;99.90
7972;DHT22;4031;49.758;6.120;2023-02-04T12:46:20;11.70;99.90
7972;DHT22;4031;49.758;6.120;2023-02-04T12:48:46;11.70;99.90
7972;DHT22;4031;49.758;6.120;2023-02-04T12:51:11;11.70;99.90
7972;DHT22;4031;49.758;6.120;2023-02-04T12:53:37;11.70;99.90
7972;DHT22;4031;49.758;6.120;2023-02-04T12:56:03;11.80;99.90
7972;DHT22;4031;49.758;6.120;2023-02-04T12:58:29;11.70;99.90
7972;DHT22;4031;49.758;6.120;2023-02-04T13:00:54;11.80;99.90
7972;DHT22;4031;49.758;6.120;2023-02-04T13:03:20;12.00;99.90
7972;DHT22;4031;49.758;6.120;2023-02-04T13:05:47;11.90;99.90
7972;DHT22;4031;49.758;6.120;2023-02-04T13:08:13;11.80;99.90
7972;DHT22;4031;49.758;6.120;2023-02-04T13:10:39;11.60;99.90
7972;DHT22;4031;49.758;6.120;2023-02-04T13:13:05;11.60;99.90
7972;DHT22;4031;49.758;6.120;2023-02-04T13:15:30;11.40;99.90
7972;DHT22;4031;49.758;6.120;2023-02-04T13:17:56;11.40;99.90
7972;DHT22;4031;49.758;6.120;2023-02-04T13:20:22;11.60;99.90
7972;DHT22;4031;49.758;6.120;2023-02-04T13:22:48;11.60;99.90
7972;DHT22;4031;49.758;6.120;2023-02-04T13:25:14;11.70;99.90
7972;DHT22;4031;49.758;6.120;2023-02-04T13:27:40;11.70;99.90
7972;DHT22;4031;49.758;6.120;2023-02-04T13:30:07;11.80;99.90
7972;DHT22;4031;49.758;6.120;2023-02-04T13:32:33;11.60;99.90
7972;DHT22;4031;49.758;6.120;2023-02-04T13:34:59;11.40;99.90
7972;DHT22;4031;49.758;6.120;2023-02-04T13:37:25;11.30;99.90
7972;DHT22;4031;49.758;6.120;2023-02-04T13:39:50;11.20;99.90
7972;DHT22;4031;49.758;6.120;2023-02-04T13:42:16;11.10;99.90
7972;DHT22;4031;49.758;6.120;2023-02-04T13:44:42;11.10;99.90
7972;DHT22;4031;49.758;6.120;2023-02-04T13:47:08;11.00;99.90
7972;DHT22;4031;49.758;6.120;2023-02-04T13:49:33;10.90;99.90
7972;DHT22;4031;49.758;6.120;2023-02-04T13:51:59;10.90;99.90
7972;DHT22;4031;49.758;6.120;2023-02-04T13:54:25;10.90;99.90
7972;DHT22;4031;49.758;6.120;2023-02-04T13:56:50;10.70;99.90
7972;DHT22;4031;49.758;6.120;2023-02-04T13:59:16;10.50;99.90
7972;DHT22;4031;49.758;6.120;2023-02-04T14:01:42;10.50;99.90
7972;DHT22;4031;49.758;6.120;2023-02-04T14:04:08;10.70;99.90
7972;DHT22;4031;49.758;6.120;2023-02-04T14:06:34;11.10;99.90
7972;DHT22;4031;49.758;6.120;2023-02-04T14:09:03;11.30;99.90
7972;DHT22;4031;49.758;6.120;2023-02-04T14:11:29;11.50;99.90
7972;DHT22;4031;49.758;6.120;2023-02-04T14:13:55;11.40;99.90
7972;DHT22;4031;49.758;6.120;2023-02-04T14:16:21;11.30;99.90
7972;DHT22;4031;49.758;6.120;2023-02-04T14:18:47;11.40;99.90
7972;DHT22;4031;49.758;6.120;2023-02-04T14:21:13;11.50;99.90
7972;DHT22;4031;49.758;6.120;2023-02-04T14:23:38;11.60;99.90
7972;DHT22;4031;49.758;6.120;2023-02-04T14:26:04;11.60;99.90
7972;DHT22;4031;49.758;6.120;2023-02-04T14:28:30;11.50;99.90
7972;DHT22;4031;49.758;6.120;2023-02-04T14:30:55;11.30;99.90
7972;DHT22;4031;49.758;6.120;2023-02-04T14:33:21;11.20;99.90
7972;DHT22;4031;49.758;6.120;2023-02-04T14:35:47;11.20;99.90
7972;DHT22;4031;49.758;6.120;2023-02-04T14:38:13;11.10;99.90
7972;DHT22;4031;49.758;6.120;2023-02-04T14:40:41;11.10;99.90
7972;DHT22;4031;49.758;6.120;2023-02-04T14:43:08;10.90;99.90
7972;DHT22;4031;49.758;6.120;2023-02-04T14:45:36;10.90;99.90
7972;DHT22;4031;49.758;6.120;2023-02-04T14:48:02;10.70;99.90
7972;DHT22;4031;49.758;6.120;2023-02-04T14:50:28;10.50;99.90
7972;DHT22;4031;49.758;6.120;2023-02-04T14:52:55;10.30;99.90
7972;DHT22;4031;49.758;6.120;2023-02-04T14:55:23;10.20;99.90
7972;DHT22;4031;49.758;6.120;2023-02-04T14:57:49;10.20;99.90
7972;DHT22;4031;49.758;6.120;2023-02-04T15:00:15;10.20;99.90
7972;DHT22;4031;49.758;6.120;2023-02-04T15:02:41;10.30;99.90
7972;DHT22;4031;49.758;6.120;2023-02-04T15:05:08;10.30;99.90
7972;DHT22;4031;49.758;6.120;2023-02-04T15:07:35;10.30;99.90
7972;DHT22;4031;49.758;6.120;2023-02-04T15:10:00;10.30;99.90
7972;DHT22;4031;49.758;6.120;2023-02-04T15:12:26;10.30;99.90
7972;DHT22;4031;49.758;6.120;2023-02-04T15:14:52;10.10;99.90
7972;DHT22;4031;49.758;6.120;2023-02-04T15:17:19;10.20;99.90
7972;DHT22;4031;49.758;6.120;2023-02-04T15:19:44;10.00;99.90
7972;DHT22;4031;49.758;6.120;2023-02-04T15:22:11;9.90;99.90
7972;DHT22;4031;49.758;6.120;2023-02-04T15:24:40;9.80;99.90
7972;DHT22;4031;49.758;6.120;2023-02-04T15:27:06;9.80;99.90
7972;DHT22;4031;49.758;6.120;2023-02-04T15:29:32;9.60;99.90
7972;DHT22;4031;49.758;6.120;2023-02-04T15:31:58;9.60;99.90
7972;DHT22;4031;49.758;6.120;2023-02-04T15:34:24;9.60;99.90
7972;DHT22;4031;49.758;6.120;2023-02-04T15:36:50;9.50;99.90
7972;DHT22;4031;49.758;6.120;2023-02-04T15:39:16;9.50;99.90
7972;DHT22;4031;49.758;6.120;2023-02-04T15:41:41;9.40;99.90
7972;DHT22;4031;49.758;6.120;2023-02-04T15:44:07;9.30;99.90
7972;DHT22;4031;49.758;6.120;2023-02-04T15:46:33;9.30;99.90
7972;DHT22;4031;49.758;6.120;2023-02-04T15:49:01;9.20;99.90
7972;DHT22;4031;49.758;6.120;2023-02-04T15:51:27;9.20;99.90
7972;DHT22;4031;49.758;6.120;2023-02-04T15:53:53;9.10;99.90
7972;DHT22;4031;49.758;6.120;2023-02-04T15:56:18;9.10;99.90
7972;DHT22;4031;49.758;6.120;2023-02-04T15:58:44;8.90;99.90
7972;DHT22;4031;49.758;6.120;2023-02-04T16:01:10;8.90;99.90
7972;DHT22;4031;49.758;6.120;2023-02-04T16:03:35;8.80;99.90
7972;DHT22;4031;49.758;6.120;2023-02-04T16:06:01;8.70;99.90
7972;DHT22;4031;49.758;6.120;2023-02-04T16:08:28;8.60;99.90
7972;DHT22;4031;49.758;6.120;2023-02-04T16:10:54;8.60;99.90
7972;DHT22;4031;49.758;6.120;2023-02-04T16:13:20;8.50;99.90
7972;DHT22;4031;49.758;6.120;2023-02-04T16:15:46;8.40;99.90
7972;DHT22;4031;49.758;6.120;2023-02-04T16:18:12;8.40;99.90
7972;DHT22;4031;49.758;6.120;2023-02-04T16:20:38;8.30;99.90
7972;DHT22;4031;49.758;6.120;2023-02-04T16:23:03;8.20;99.90